Scout — WCZ2046 — position and weather

sailwx.info

Track history (hours):
 
Tides and Currents Weather Stations Pressure Air Temp Water Temp Dewpoint Dewpoint Depression Visibility Wind Speed Wind Dir Waves Ship Positions

Scout

Owner: Crowley Marine Services, SEATTLE, WA. More information available from US FCC via Universal Licensing System and Coast Guard Vessel Documentation Center.

Last reported at 2017-Sep-21 22:00 UTC. Time now 2017-Sep-21 23:14 UTC.
Position N 32°42' W 117°10'.

; draft 5.6 m.

Type: Tug. MMSI: 366764730.

Date/timePositionNaut miles runAvg speedWind from/ knotsBaromVisibWave heightAir tempDewpointWater temp
2017-Sep-21 22:00N 32°42' W 117°10'1 2.6
2017-Sep-21 21:30N 32°43' W 117°11'1 1.5
2017-Sep-21 20:47N 32°42' W 117°10'1 4.6
2017-Sep-21 20:30N 32°43' W 117°11'2 3.1
2017-Sep-21 20:00N 32°42' W 117°10'0 0.0
2017-Sep-21 19:31N 32°42' W 117°10'3 5.4
2017-Sep-21 18:52N 32°39' W 117°07'0 1.2
2017-Sep-21 18:30N 32°39' W 117°07'3 1.4
2017-Sep-21 16:12N 32°42' W 117°09'3 3.0
2017-Sep-21 15:21N 32°39' W 117°07'1 1.6
2017-Sep-21 14:53N 32°39' W 117°07'0 0.9
2017-Sep-21 14:27N 32°39' W 117°07'2 4.7
2017-Sep-21 13:59N 32°41' W 117°08'1 0.0
2017-Sep-19 21:24N 32°42' W 117°09'2 5.3
2017-Sep-19 21:00N 32°43' W 117°11'2 0.1
2017-Sep-18 10:51N 32°42' W 117°09'1 0.7
2017-Sep-18 09:29N 32°41' W 117°09'  
2017-Sep-15 20:17N 32°42' W 117°09'2 8.2
2017-Sep-15 20:00N 32°40' W 117°08'0 0.2
2017-Sep-15 19:20N 32°40' W 117°08'2 5.2
2017-Sep-15 18:59N 32°41' W 117°09'0 0.0
2017-Sep-15 01:19N 32°42' W 117°09'3 7.9
2017-Sep-15 00:59N 32°39' W 117°07'2 2.7
2017-Sep-15 00:25N 32°41' W 117°08'1 0.1
2017-Sep-14 13:06N 32°42' W 117°09'1 7.9
2017-Sep-14 12:58N 32°41' W 117°08'2 4.0
2017-Sep-14 12:30N 32°39' W 117°07'1 2.9
2017-Sep-14 11:59N 32°41' W 117°08'1 0.1
2017-Sep-14 00:36N 32°42' W 117°09'1 8.7
2017-Sep-14 00:27N 32°41' W 117°08'2 3.9
2017-Sep-14 00:00N 32°39' W 117°07'0 0.0
2017-Sep-13 23:30N 32°39' W 117°07'0 0.0
2017-Sep-13 23:00N 32°39' W 117°07'2 3.1
2017-Sep-13 22:26N 32°41' W 117°08'2 4.3
2017-Sep-13 21:57N 32°39' W 117°07'0 0.1
2017-Sep-13 21:30N 32°39' W 117°07'4 0.5
2017-Sep-13 14:35N 32°42' W 117°10'0 1.3
2017-Sep-13 14:22N 32°42' W 117°10'2 5.8
2017-Sep-13 14:01N 32°43' W 117°12'2 4.0
2017-Sep-13 13:29N 32°42' W 117°10'2 3.5
2017-Sep-13 12:58N 32°41' W 117°08'1 1.3
2017-Sep-13 12:12N 32°40' W 117°08'1 6.1
2017-Sep-13 12:00N 32°41' W 117°08'1 0.1
2017-Sep-13 03:45N 32°42' W 117°09'2 1.7
2017-Sep-13 02:32N 32°40' W 117°08'0 2.9
2017-Sep-13 02:30N 32°40' W 117°08'  
Track history (hours):
 
Tides and Currents Weather Stations Pressure Air Temp Water Temp Dewpoint Dewpoint Depression Visibility Wind Speed Wind Dir Waves Ship Positions

Scout

Owner: Crowley Marine Services, SEATTLE, WA. More information available from US FCC via Universal Licensing System and Coast Guard Vessel Documentation Center.

Last reported at 2017-Sep-21 22:00 UTC. Time now 2017-Sep-21 23:14 UTC.
Position N 32°42' W 117°10'.

; draft 5.6 m.

Type: Tug. MMSI: 366764730.

Date/timePositionNaut miles runAvg speedWind from/ knotsBaromVisibWave heightAir tempDewpointWater temp
2017-Sep-21 22:00N 32°42' W 117°10'1 2.6
2017-Sep-21 21:30N 32°43' W 117°11'1 1.5
2017-Sep-21 20:47N 32°42' W 117°10'1 4.6
2017-Sep-21 20:30N 32°43' W 117°11'2 3.1
2017-Sep-21 20:00N 32°42' W 117°10'0 0.0
2017-Sep-21 19:31N 32°42' W 117°10'3 5.4
2017-Sep-21 18:52N 32°39' W 117°07'0 1.2
2017-Sep-21 18:30N 32°39' W 117°07'3 1.4
2017-Sep-21 16:12N 32°42' W 117°09'3 3.0
2017-Sep-21 15:21N 32°39' W 117°07'1 1.6
2017-Sep-21 14:53N 32°39' W 117°07'0 0.9
2017-Sep-21 14:27N 32°39' W 117°07'2 4.7
2017-Sep-21 13:59N 32°41' W 117°08'1 0.0
2017-Sep-19 21:24N 32°42' W 117°09'2 5.3
2017-Sep-19 21:00N 32°43' W 117°11'2 0.1
2017-Sep-18 10:51N 32°42' W 117°09'1 0.7
2017-Sep-18 09:29N 32°41' W 117°09'  
2017-Sep-15 20:17N 32°42' W 117°09'2 8.2
2017-Sep-15 20:00N 32°40' W 117°08'0 0.2
2017-Sep-15 19:20N 32°40' W 117°08'2 5.2
2017-Sep-15 18:59N 32°41' W 117°09'0 0.0
2017-Sep-15 01:19N 32°42' W 117°09'3 7.9
2017-Sep-15 00:59N 32°39' W 117°07'2 2.7
2017-Sep-15 00:25N 32°41' W 117°08'1 0.1
2017-Sep-14 13:06N 32°42' W 117°09'1 7.9
2017-Sep-14 12:58N 32°41' W 117°08'2 4.0
2017-Sep-14 12:30N 32°39' W 117°07'1 2.9
2017-Sep-14 11:59N 32°41' W 117°08'1 0.1
2017-Sep-14 00:36N 32°42' W 117°09'1 8.7
2017-Sep-14 00:27N 32°41' W 117°08'2 3.9
2017-Sep-14 00:00N 32°39' W 117°07'0 0.0
2017-Sep-13 23:30N 32°39' W 117°07'0 0.0
2017-Sep-13 23:00N 32°39' W 117°07'2 3.1
2017-Sep-13 22:26N 32°41' W 117°08'2 4.3
2017-Sep-13 21:57N 32°39' W 117°07'0 0.1
2017-Sep-13 21:30N 32°39' W 117°07'4 0.5
2017-Sep-13 14:35N 32°42' W 117°10'0 1.3
2017-Sep-13 14:22N 32°42' W 117°10'2 5.8
2017-Sep-13 14:01N 32°43' W 117°12'2 4.0
2017-Sep-13 13:29N 32°42' W 117°10'2 3.5
2017-Sep-13 12:58N 32°41' W 117°08'1 1.3
2017-Sep-13 12:12N 32°40' W 117°08'1 6.1
2017-Sep-13 12:00N 32°41' W 117°08'1 0.1
2017-Sep-13 03:45N 32°42' W 117°09'2 1.7
2017-Sep-13 02:32N 32°40' W 117°08'0 2.9
2017-Sep-13 02:30N 32°40' W 117°08'  

Dump ship's entire track history